createdAt,value
2019-05-26T00:00:58.745Z,8.00
2019-05-26T00:01:58.709Z,7.80
2019-05-26T00:02:58.675Z,7.40
2019-05-26T00:03:58.637Z,7.90
2019-05-26T00:04:58.597Z,8.00
2019-05-26T00:05:58.564Z,7.60
2019-05-26T00:06:58.532Z,7.60
2019-05-26T00:07:58.503Z,7.80
2019-05-26T00:08:58.447Z,8.00
2019-05-26T00:09:58.413Z,8.10
2019-05-26T00:10:58.372Z,7.60
2019-05-26T00:11:58.335Z,8.30
2019-05-26T00:12:58.304Z,8.30
2019-05-26T00:13:58.256Z,8.30
2019-05-26T00:14:58.219Z,8.00
2019-05-26T00:15:58.184Z,8.00
2019-05-26T00:16:58.145Z,8.70
2019-05-26T00:17:58.105Z,7.80
2019-05-26T00:18:58.069Z,8.10
2019-05-26T00:19:58.029Z,8.10
2019-05-26T00:20:57.992Z,8.70
2019-05-26T00:21:57.960Z,8.40
2019-05-26T00:22:57.922Z,8.80
2019-05-26T00:23:57.884Z,9.10
2019-05-26T00:24:57.843Z,9.80
2019-05-26T00:25:57.804Z,9.30
2019-05-26T00:26:57.766Z,9.70
2019-05-26T00:27:57.729Z,10.00
2019-05-26T00:28:57.690Z,9.80
2019-05-26T00:29:57.655Z,9.70
2019-05-26T00:30:57.618Z,9.30
2019-05-26T00:31:57.577Z,10.30
2019-05-26T00:32:57.541Z,9.90
2019-05-26T00:33:57.504Z,10.30
2019-05-26T00:34:57.472Z,11.10
2019-05-26T00:35:57.430Z,10.30
2019-05-26T00:36:57.390Z,10.50
2019-05-26T00:37:57.353Z,10.50
2019-05-26T00:38:57.312Z,10.60
2019-05-26T00:39:57.273Z,10.80
2019-05-26T00:40:57.238Z,10.20
2019-05-26T00:41:57.201Z,11.20
2019-05-26T00:42:57.164Z,11.00
2019-05-26T00:43:57.131Z,11.30
2019-05-26T00:44:57.092Z,11.50
2019-05-26T00:45:57.060Z,11.50
2019-05-26T00:46:57.009Z,11.80
2019-05-26T00:47:56.977Z,12.10
2019-05-26T00:48:56.939Z,12.60
2019-05-26T00:49:56.900Z,12.60
2019-05-26T00:50:56.857Z,12.60
2019-05-26T00:51:56.820Z,13.20
2019-05-26T00:52:57.054Z,12.90
2019-05-26T00:53:56.747Z,12.60
2019-05-26T00:54:56.712Z,13.10
2019-05-26T00:55:56.676Z,13.50
2019-05-26T00:56:56.637Z,13.40
2019-05-26T00:57:56.594Z,13.50
2019-05-26T00:58:56.555Z,13.70
2019-05-26T00:59:56.521Z,13.50
2019-05-26T01:00:56.508Z,14.30
2019-05-26T01:01:56.613Z,14.60
2019-05-26T01:02:56.410Z,14.40
2019-05-26T01:03:56.368Z,14.30
2019-05-26T01:04:56.333Z,14.40
2019-05-26T01:05:56.294Z,14.70
2019-05-26T01:06:56.259Z,15.10
2019-05-26T01:08:05.970Z,15.30
2019-05-26T01:08:56.182Z,15.70
2019-05-26T01:09:56.141Z,16.00
2019-05-26T01:10:56.101Z,15.20
2019-05-26T01:11:56.067Z,15.30
2019-05-26T01:12:56.026Z,15.50
2019-05-26T01:13:55.992Z,15.00
2019-05-26T01:14:55.957Z,15.20
2019-05-26T01:15:55.918Z,15.40
2019-05-26T01:16:56.262Z,16.20
2019-05-26T01:17:55.839Z,15.50
2019-05-26T01:18:55.805Z,15.70
2019-05-26T01:19:55.766Z,15.40
2019-05-26T01:20:55.725Z,15.80
2019-05-26T01:21:55.690Z,16.20
2019-05-26T01:22:55.646Z,15.40
2019-05-26T01:23:55.609Z,15.90
2019-05-26T01:24:55.574Z,15.80
2019-05-26T01:25:55.539Z,16.10
2019-05-26T01:26:55.500Z,16.40
2019-05-26T01:27:55.464Z,17.40
2019-05-26T01:28:55.425Z,16.70
2019-05-26T01:29:55.383Z,16.80
2019-05-26T01:30:55.344Z,17.00
2019-05-26T01:31:55.312Z,16.80
2019-05-26T01:32:55.271Z,17.90
2019-05-26T01:33:55.238Z,17.80
2019-05-26T01:34:55.199Z,18.10
2019-05-26T01:35:55.153Z,18.70
2019-05-26T01:36:55.120Z,17.80
2019-05-26T01:37:55.081Z,18.10
2019-05-26T01:38:55.045Z,18.30
2019-05-26T01:39:55.120Z,17.60
2019-05-26T01:40:54.979Z,18.30
2019-05-26T01:41:54.930Z,19.50
2019-05-26T01:42:54.888Z,17.60
2019-05-26T01:43:54.851Z,18.70
2019-05-26T01:44:54.818Z,18.50
2019-05-26T01:45:54.778Z,18.80
2019-05-26T01:46:54.744Z,19.50
2019-05-26T01:47:54.705Z,19.40
2019-05-26T01:48:54.667Z,18.90
2019-05-26T01:49:54.625Z,20.10
2019-05-26T01:50:54.586Z,19.60
2019-05-26T01:51:54.560Z,19.60
2019-05-26T01:52:54.514Z,19.50
2019-05-26T01:53:54.473Z,21.50
2019-05-26T01:54:54.436Z,22.10
2019-05-26T01:55:54.398Z,22.60
2019-05-26T01:56:54.359Z,22.10
2019-05-26T01:57:54.323Z,23.20
2019-05-26T01:58:54.288Z,23.20
2019-05-26T01:59:54.252Z,24.00
2019-05-26T02:00:54.215Z,23.00
2019-05-26T02:01:54.169Z,22.80
2019-05-26T02:02:54.149Z,23.10
2019-05-26T02:03:54.093Z,23.30
2019-05-26T02:04:54.070Z,23.50
2019-05-26T02:05:54.020Z,24.60
2019-05-26T02:06:53.989Z,24.20
2019-05-26T02:07:53.967Z,25.90
2019-05-26T02:08:53.910Z,25.70
2019-05-26T02:09:53.868Z,24.10
2019-05-26T02:10:53.835Z,26.50
2019-05-26T02:11:53.795Z,26.10
2019-05-26T02:12:53.757Z,26.40
2019-05-26T02:13:53.715Z,26.80
2019-05-26T02:14:53.675Z,26.70
2019-05-26T02:15:53.637Z,26.40
2019-05-26T02:16:53.601Z,27.80
2019-05-26T02:17:53.564Z,27.30
2019-05-26T02:18:53.577Z,28.50
2019-05-26T02:19:53.493Z,26.90
2019-05-26T02:20:53.452Z,27.40
2019-05-26T02:21:53.412Z,28.70
2019-05-26T02:22:53.375Z,28.10
2019-05-26T02:23:53.401Z,27.80
2019-05-26T02:24:53.303Z,27.00
2019-05-26T02:25:53.257Z,27.30
2019-05-26T02:26:53.219Z,26.80
2019-05-26T02:27:53.180Z,27.60
2019-05-26T02:28:53.153Z,27.00
2019-05-26T02:29:53.108Z,27.50
2019-05-26T02:30:53.077Z,27.80
2019-05-26T02:31:53.034Z,27.90
2019-05-26T02:32:53.013Z,28.60
2019-05-26T02:33:52.954Z,29.50
2019-05-26T02:34:52.921Z,30.20
2019-05-26T02:35:52.879Z,30.10
2019-05-26T02:36:52.873Z,30.10
2019-05-26T02:37:52.804Z,31.70
2019-05-26T02:39:01.860Z,32.00
2019-05-26T02:39:52.723Z,32.20
2019-05-26T02:40:52.687Z,31.60
2019-05-26T02:41:52.657Z,32.40
2019-05-26T02:42:52.616Z,33.40
2019-05-26T02:43:52.580Z,34.80
2019-05-26T02:44:52.537Z,33.50
2019-05-26T02:45:52.505Z,32.40
2019-05-26T02:46:52.458Z,33.00
2019-05-26T02:47:52.431Z,32.70
2019-05-26T02:48:52.386Z,33.20
2019-05-26T02:49:52.349Z,34.80
2019-05-26T02:50:52.313Z,34.50
2019-05-26T02:51:52.371Z,34.10
2019-05-26T02:52:52.236Z,33.40
2019-05-26T02:53:52.192Z,33.70
2019-05-26T02:54:52.157Z,34.00
2019-05-26T02:55:52.121Z,33.20
2019-05-26T02:56:52.088Z,35.00
2019-05-26T02:57:52.049Z,36.20
2019-05-26T02:58:52.002Z,34.70
2019-05-26T02:59:51.963Z,34.60
2019-05-26T03:00:51.928Z,33.90
2019-05-26T03:02:03.103Z,34.70
2019-05-26T03:02:51.857Z,35.80
2019-05-26T03:03:51.815Z,34.70
2019-05-26T03:04:51.786Z,36.50
2019-05-26T03:05:51.737Z,35.70
2019-05-26T03:06:51.696Z,36.90
2019-05-26T03:07:51.658Z,35.30
2019-05-26T03:08:51.623Z,36.50
2019-05-26T03:09:51.586Z,35.30
2019-05-26T03:10:51.549Z,36.00
2019-05-26T03:11:51.508Z,36.10
2019-05-26T03:12:51.473Z,37.60
2019-05-26T03:13:51.435Z,36.40
2019-05-26T03:14:51.400Z,37.60
2019-05-26T03:15:51.357Z,37.00
2019-05-26T03:16:51.321Z,36.60
2019-05-26T03:17:51.279Z,36.80
2019-05-26T03:18:51.242Z,36.40
2019-05-26T03:19:51.199Z,36.70
2019-05-26T03:20:51.162Z,37.80
2019-05-26T03:21:51.126Z,37.40
2019-05-26T03:35:50.439Z,31.40
2019-05-26T03:36:50.353Z,29.60
2019-05-26T03:37:50.309Z,32.20
2019-05-26T03:38:50.281Z,32.60
2019-05-26T03:39:50.226Z,32.00
2019-05-26T03:40:50.286Z,29.90
2019-05-26T03:41:50.146Z,31.00
2019-05-26T03:42:50.106Z,30.80
2019-05-26T03:43:50.067Z,28.80
2019-05-26T03:44:50.025Z,29.40
2019-05-26T03:45:49.989Z,29.10
2019-05-26T03:46:49.956Z,27.40
2019-05-26T03:47:49.907Z,28.00
2019-05-26T03:48:49.867Z,27.20
2019-05-26T03:49:49.826Z,27.30
2019-05-26T03:50:49.792Z,27.60
2019-05-26T03:51:49.756Z,27.60
2019-05-26T03:52:49.714Z,27.00
2019-05-26T03:53:49.675Z,27.00
2019-05-26T03:54:49.634Z,27.40
2019-05-26T03:55:49.596Z,27.10
2019-05-26T03:56:49.562Z,25.70
2019-05-26T03:57:49.522Z,26.40
2019-05-26T03:58:49.483Z,26.20
2019-05-26T03:59:49.440Z,26.30
2019-05-26T04:00:49.400Z,26.30
2019-05-26T04:01:49.362Z,25.90
2019-05-26T04:02:49.330Z,25.30
2019-05-26T04:03:49.285Z,26.60
2019-05-26T04:04:49.246Z,25.00
2019-05-26T04:05:49.209Z,26.10
2019-05-26T04:06:49.173Z,25.20
2019-05-26T04:07:49.132Z,26.10
2019-05-26T04:08:49.091Z,25.00
2019-05-26T04:10:04.124Z,25.30
2019-05-26T04:10:49.018Z,24.80
2019-05-26T04:11:48.988Z,24.70
2019-05-26T04:12:48.939Z,23.40
2019-05-26T04:13:48.899Z,24.10
2019-05-26T04:14:48.867Z,23.60
2019-05-26T04:15:48.826Z,24.60
2019-05-26T04:16:48.787Z,23.80
2019-05-26T04:17:48.751Z,22.50
2019-05-26T04:18:48.710Z,22.50
2019-05-26T04:19:48.672Z,22.40
2019-05-26T04:20:48.631Z,22.90
2019-05-26T04:21:48.591Z,21.80
2019-05-26T04:22:48.559Z,21.40
2019-05-26T04:23:48.518Z,21.20
2019-05-26T04:24:48.617Z,21.30
2019-05-26T04:25:48.443Z,21.50
2019-05-26T04:26:48.400Z,21.40
2019-05-26T04:27:48.368Z,21.30
2019-05-26T04:28:48.330Z,21.60
2019-05-26T04:29:48.292Z,20.80
2019-05-26T04:30:48.255Z,20.40
2019-05-26T04:31:48.210Z,21.20
2019-05-26T04:32:48.174Z,21.30
2019-05-26T04:33:48.136Z,21.00
2019-05-26T04:34:48.105Z,21.40
2019-05-26T04:35:48.063Z,21.20
2019-05-26T04:36:48.026Z,21.70
2019-05-26T04:37:48.001Z,21.40
2019-05-26T04:38:47.954Z,21.10
2019-05-26T04:39:47.907Z,21.40
2019-05-26T04:40:47.872Z,21.40
2019-05-26T04:41:47.831Z,21.90
2019-05-26T04:42:47.797Z,20.80
2019-05-26T04:43:47.764Z,20.40
2019-05-26T04:44:47.724Z,20.40
2019-05-26T04:45:47.682Z,21.40
2019-05-26T04:46:47.649Z,20.50
2019-05-26T04:47:47.614Z,21.00
2019-05-26T04:48:47.585Z,19.70
2019-05-26T04:49:47.536Z,19.30
2019-05-26T04:50:47.492Z,20.10
2019-05-26T04:51:47.459Z,19.70
2019-05-26T04:53:04.477Z,19.00
2019-05-26T04:53:47.380Z,18.90
2019-05-26T04:54:47.346Z,18.80
2019-05-26T04:55:47.306Z,19.20
2019-05-26T04:56:47.274Z,19.30
2019-05-26T04:57:47.232Z,19.30
2019-05-26T04:58:47.203Z,19.80
2019-05-26T04:59:47.160Z,18.80
2019-05-26T05:00:47.119Z,19.60
2019-05-26T05:01:47.084Z,19.20
2019-05-26T05:02:47.041Z,18.50
2019-05-26T05:03:47.004Z,19.10
2019-05-26T05:04:46.968Z,17.90
2019-05-26T05:05:46.928Z,18.20
2019-05-26T05:06:46.897Z,17.80
2019-05-26T05:07:46.857Z,17.90
2019-05-26T05:08:46.822Z,17.60
2019-05-26T05:09:46.787Z,17.20
2019-05-26T05:10:46.742Z,17.30
2019-05-26T05:11:46.705Z,17.30
2019-05-26T05:12:46.674Z,17.10
2019-05-26T05:13:46.629Z,17.40
2019-05-26T05:14:46.603Z,17.30
2019-05-26T05:15:46.558Z,16.60
2019-05-26T05:16:46.531Z,17.50
2019-05-26T05:17:46.481Z,16.80
2019-05-26T05:18:46.447Z,16.50
2019-05-26T05:19:46.410Z,16.70
2019-05-26T05:20:46.372Z,16.60
2019-05-26T05:21:46.339Z,17.40
2019-05-26T05:22:46.294Z,16.50
2019-05-26T05:23:46.260Z,17.30
2019-05-26T05:24:46.225Z,16.70
2019-05-26T05:25:46.188Z,17.30
2019-05-26T05:26:46.152Z,16.80
2019-05-26T05:27:46.113Z,16.60
2019-05-26T05:28:46.076Z,17.20
2019-05-26T05:29:46.040Z,16.80
2019-05-26T05:30:46.001Z,16.20
2019-05-26T05:31:45.970Z,16.90
2019-05-26T05:32:45.928Z,17.00
2019-05-26T05:33:45.894Z,16.70
2019-05-26T05:34:45.854Z,17.20
2019-05-26T05:35:45.816Z,16.30
2019-05-26T05:36:45.780Z,16.00
2019-05-26T05:37:45.748Z,16.70
2019-05-26T05:38:45.712Z,15.50
2019-05-26T05:39:45.673Z,16.00
2019-05-26T05:40:58.379Z,15.70
2019-05-26T05:41:45.602Z,15.30
2019-05-26T05:42:45.560Z,15.60
2019-05-26T05:43:45.527Z,15.80
2019-05-26T05:44:45.489Z,15.40
2019-05-26T05:45:45.450Z,15.60
2019-05-26T05:46:45.422Z,15.60
2019-05-26T05:47:45.380Z,16.40
2019-05-26T05:48:45.344Z,15.30
2019-05-26T05:49:45.379Z,14.80
2019-05-26T05:50:45.275Z,14.10
2019-05-26T05:51:45.254Z,14.50
2019-05-26T05:52:45.201Z,14.10
2019-05-26T05:53:45.172Z,13.80
2019-05-26T05:54:45.126Z,14.10
2019-05-26T05:55:45.090Z,13.80
2019-05-26T05:56:45.055Z,13.40
2019-05-26T05:57:45.020Z,13.80
2019-05-26T05:58:44.993Z,13.50
2019-05-26T05:59:44.949Z,13.30
2019-05-26T06:00:44.915Z,13.40
2019-05-26T06:01:44.881Z,13.60
2019-05-26T06:02:44.838Z,13.70
2019-05-26T06:03:44.803Z,13.00
2019-05-26T06:04:44.769Z,13.20
2019-05-26T06:05:44.737Z,13.80
2019-05-26T06:06:44.704Z,14.00
2019-05-26T06:07:44.661Z,13.20
2019-05-26T06:08:44.626Z,12.90
2019-05-26T06:09:44.590Z,13.50
2019-05-26T06:10:44.559Z,13.00
2019-05-26T06:11:44.524Z,13.60
2019-05-26T06:12:44.486Z,13.20
2019-05-26T06:13:44.452Z,14.20
2019-05-26T06:14:44.412Z,13.10
2019-05-26T06:15:44.385Z,13.40
2019-05-26T06:16:44.342Z,13.50
2019-05-26T06:17:44.305Z,13.20
2019-05-26T06:18:44.276Z,13.40
2019-05-26T06:19:44.241Z,13.40
2019-05-26T06:20:44.202Z,13.30
2019-05-26T06:21:44.174Z,13.90
2019-05-26T06:22:44.138Z,13.70
2019-05-26T06:23:44.108Z,13.80
2019-05-26T06:24:44.067Z,13.50
2019-05-26T06:25:44.034Z,13.70
2019-05-26T06:26:43.996Z,13.30
2019-05-26T06:27:43.955Z,13.50
2019-05-26T06:28:43.920Z,13.80
2019-05-26T06:29:57.816Z,13.60
2019-05-26T06:30:43.859Z,13.60
2019-05-26T06:31:43.894Z,14.00
2019-05-26T06:32:43.788Z,13.60
2019-05-26T06:33:43.751Z,13.20
2019-05-26T06:34:43.710Z,13.90
2019-05-26T06:35:43.681Z,13.80
2019-05-26T06:36:43.656Z,13.00
2019-05-26T06:37:43.617Z,14.00
2019-05-26T06:38:43.571Z,14.20
2019-05-26T06:39:43.540Z,13.40
2019-05-26T06:40:43.503Z,13.40
2019-05-26T06:41:43.467Z,13.30
2019-05-26T06:42:43.436Z,13.00
2019-05-26T06:43:43.403Z,13.40
2019-05-26T06:44:53.033Z,13.50
2019-05-26T06:45:43.334Z,13.10
2019-05-26T06:46:43.295Z,13.10
2019-05-26T06:47:43.263Z,13.00
2019-05-26T06:48:43.234Z,13.10
2019-05-26T06:49:43.193Z,13.00
2019-05-26T06:50:43.165Z,13.40
2019-05-26T06:51:43.125Z,12.80
2019-05-26T06:52:43.092Z,12.80
2019-05-26T06:53:43.053Z,13.10
2019-05-26T06:54:43.026Z,12.50
2019-05-26T06:55:42.991Z,12.70
2019-05-26T06:56:42.959Z,11.80
2019-05-26T06:57:42.990Z,12.80
2019-05-26T06:58:42.882Z,12.50
2019-05-26T06:59:42.853Z,11.90
2019-05-26T07:00:42.816Z,11.90
2019-05-26T07:01:42.783Z,11.50
2019-05-26T07:02:42.753Z,11.90
2019-05-26T07:03:42.718Z,11.80
2019-05-26T07:04:42.681Z,10.90
2019-05-26T07:05:42.648Z,10.90
2019-05-26T07:06:42.610Z,10.50
2019-05-26T07:07:42.578Z,10.00
2019-05-26T07:08:42.546Z,10.30
2019-05-26T07:09:42.513Z,9.70
2019-05-26T07:10:42.472Z,9.00
2019-05-26T07:11:55.579Z,8.60
2019-05-26T07:12:42.412Z,9.00
2019-05-26T07:13:42.376Z,8.50
2019-05-26T07:14:42.344Z,8.60
2019-05-26T07:15:42.308Z,8.80
2019-05-26T07:16:42.274Z,8.30
2019-05-26T07:17:42.243Z,7.70
2019-05-26T07:18:42.202Z,8.00
2019-05-26T07:19:42.171Z,8.10
2019-05-26T07:20:42.146Z,7.30
2019-05-26T07:21:42.109Z,7.40
2019-05-26T07:22:42.079Z,7.20
2019-05-26T07:23:42.037Z,7.60
2019-05-26T07:24:42.005Z,7.40
2019-05-26T07:25:41.970Z,6.70
2019-05-26T07:26:41.946Z,6.60
2019-05-26T07:27:41.905Z,6.10
2019-05-26T07:28:41.871Z,5.80
2019-05-26T07:29:41.843Z,6.20
2019-05-26T07:30:41.805Z,6.40
2019-05-26T07:31:41.770Z,6.10
2019-05-26T07:32:41.737Z,6.20
2019-05-26T07:33:41.700Z,5.90
2019-05-26T07:34:41.678Z,5.80
2019-05-26T07:35:41.635Z,5.50
2019-05-26T07:36:41.602Z,5.40
2019-05-26T07:37:41.572Z,5.00
2019-05-26T07:38:41.541Z,5.20
2019-05-26T07:39:41.504Z,4.60
2019-05-26T07:40:41.469Z,4.60
2019-05-26T07:41:41.437Z,4.30
2019-05-26T07:42:41.402Z,4.20
2019-05-26T07:43:41.368Z,4.30
2019-05-26T07:44:41.333Z,3.80
2019-05-26T07:45:41.299Z,3.90
2019-05-26T07:46:41.273Z,3.80
2019-05-26T07:47:41.236Z,3.80
2019-05-26T07:48:41.203Z,3.50
2019-05-26T07:49:41.169Z,3.80
2019-05-26T07:50:41.138Z,3.60
2019-05-26T07:51:41.104Z,4.00
2019-05-26T07:52:41.081Z,3.50
2019-05-26T07:53:41.044Z,3.60
2019-05-26T07:54:41.002Z,3.80
2019-05-26T07:55:40.970Z,3.50
2019-05-26T07:56:40.939Z,3.60
2019-05-26T07:57:40.914Z,4.20
2019-05-26T07:58:40.870Z,3.60
2019-05-26T07:59:40.839Z,3.70
2019-05-26T08:00:40.806Z,3.70
2019-05-26T08:01:40.776Z,3.70
2019-05-26T08:02:40.743Z,3.40
2019-05-26T08:03:40.791Z,3.40
2019-05-26T08:04:40.679Z,3.40
2019-05-26T08:05:40.648Z,3.00
2019-05-26T08:06:40.607Z,3.40
2019-05-26T08:07:40.574Z,3.30
2019-05-26T08:08:40.542Z,3.10
2019-05-26T08:09:40.508Z,3.40
2019-05-26T08:10:40.480Z,3.10
2019-05-26T08:11:40.445Z,2.90
2019-05-26T08:12:40.409Z,2.90
2019-05-26T08:13:40.376Z,2.50
2019-05-26T08:14:40.354Z,3.10
2019-05-26T08:15:40.315Z,3.20
2019-05-26T08:16:40.280Z,2.90
2019-05-26T08:17:40.255Z,2.60
2019-05-26T08:18:40.215Z,3.00
2019-05-26T08:19:40.185Z,2.80
2019-05-26T08:20:40.149Z,2.50
2019-05-26T08:21:40.116Z,2.90
2019-05-26T08:22:40.101Z,2.80
2019-05-26T08:23:40.049Z,2.50
2019-05-26T08:24:40.015Z,2.80
2019-05-26T08:25:39.995Z,2.50
2019-05-26T08:26:39.946Z,2.60
2019-05-26T08:27:39.914Z,2.80
2019-05-26T08:28:39.884Z,2.60
2019-05-26T08:29:39.853Z,2.90
2019-05-26T08:30:39.817Z,2.60
2019-05-26T08:31:39.783Z,2.50
2019-05-26T08:32:39.749Z,2.40
2019-05-26T08:33:39.717Z,2.80
2019-05-26T08:34:39.689Z,2.90
2019-05-26T08:35:39.652Z,3.00
2019-05-26T08:36:39.622Z,2.90
2019-05-26T08:37:39.589Z,3.10
2019-05-26T08:38:39.553Z,2.70
2019-05-26T08:39:39.521Z,2.70
2019-05-26T08:40:39.489Z,2.80
2019-05-26T08:41:39.453Z,2.80
2019-05-26T08:42:44.390Z,2.70
2019-05-26T08:43:39.389Z,2.70
2019-05-26T08:44:39.356Z,2.40
2019-05-26T08:45:39.322Z,2.80
2019-05-26T08:46:39.294Z,2.80
2019-05-26T08:47:39.260Z,2.80
2019-05-26T08:48:39.225Z,2.90
2019-05-26T08:49:39.194Z,2.90
2019-05-26T08:50:39.161Z,3.00
2019-05-26T08:51:39.124Z,3.20
2019-05-26T08:52:39.091Z,2.70
2019-05-26T08:53:39.070Z,3.00
2019-05-26T08:54:39.031Z,2.90
2019-05-26T08:55:38.996Z,3.10
2019-05-26T08:56:38.961Z,2.70
2019-05-26T08:57:38.931Z,2.90
2019-05-26T08:58:38.898Z,2.90
2019-05-26T08:59:38.861Z,2.80
2019-05-26T09:00:38.832Z,3.10
2019-05-26T09:01:38.800Z,2.80
2019-05-26T09:02:38.764Z,2.90
2019-05-26T09:03:38.731Z,2.80
2019-05-26T09:04:38.697Z,2.70
2019-05-26T09:05:38.662Z,2.70
2019-05-26T09:06:38.637Z,3.10
2019-05-26T09:07:38.599Z,2.90
2019-05-26T09:08:38.567Z,2.90
2019-05-26T09:09:38.538Z,2.80
2019-05-26T09:10:38.499Z,2.80
2019-05-26T09:11:38.470Z,2.90
2019-05-26T09:12:38.434Z,2.80
2019-05-26T09:13:38.408Z,2.90
2019-05-26T09:14:38.374Z,3.10
2019-05-26T09:15:38.337Z,2.80
2019-05-26T09:16:38.306Z,2.80
2019-05-26T09:17:38.269Z,2.40
2019-05-26T09:18:38.257Z,2.60
2019-05-26T09:19:38.208Z,2.50
2019-05-26T09:20:38.175Z,2.80
2019-05-26T09:21:38.143Z,2.50
2019-05-26T09:22:38.107Z,2.50
2019-05-26T09:23:38.088Z,2.50
2019-05-26T09:24:38.043Z,2.90
2019-05-26T09:25:38.011Z,2.40
2019-05-26T09:26:37.981Z,2.40
2019-05-26T09:27:37.950Z,2.40
2019-05-26T09:28:37.914Z,2.30
2019-05-26T09:29:37.888Z,2.30
2019-05-26T09:30:37.851Z,2.30
2019-05-26T09:31:37.817Z,2.20
2019-05-26T09:32:37.784Z,2.30
2019-05-26T09:33:37.756Z,2.20
2019-05-26T09:34:37.719Z,2.10
2019-05-26T09:35:37.687Z,2.10
2019-05-26T09:49:19.134Z,2.30
2019-05-26T09:50:19.074Z,2.10
2019-05-26T09:51:19.036Z,2.00
2019-05-26T09:52:18.997Z,2.00
2019-05-26T09:53:18.959Z,2.00
2019-05-26T09:54:18.924Z,1.80
2019-05-26T09:55:18.887Z,2.10
2019-05-26T09:56:18.854Z,1.90
2019-05-26T09:57:18.823Z,1.90
2019-05-26T09:58:18.811Z,1.70
2019-05-26T09:59:18.757Z,2.00
2019-05-26T10:00:18.737Z,1.80
2019-05-26T10:01:18.690Z,1.80
2019-05-26T10:02:18.656Z,1.70
2019-05-26T10:03:18.620Z,1.80
2019-05-26T10:04:18.586Z,1.70
2019-05-26T10:05:18.550Z,1.80
2019-05-26T10:06:18.518Z,1.50
2019-05-26T10:07:18.484Z,1.60
2019-05-26T10:08:18.457Z,1.50
2019-05-26T10:09:18.423Z,1.70
2019-05-26T10:10:18.391Z,1.50
2019-05-26T10:11:18.398Z,1.50
2019-05-26T10:12:18.325Z,1.50
2019-05-26T10:13:30.942Z,1.50
2019-05-26T10:14:18.258Z,1.70
2019-05-26T10:15:18.234Z,1.50
2019-05-26T10:16:18.197Z,1.60
2019-05-26T10:17:18.169Z,1.80
2019-05-26T10:18:18.130Z,1.60
2019-05-26T10:19:18.098Z,1.80
2019-05-26T10:20:18.068Z,1.70
2019-05-26T10:21:18.038Z,1.80
2019-05-26T10:22:18.009Z,1.70
2019-05-26T10:23:17.977Z,1.60
2019-05-26T10:24:17.948Z,1.70
2019-05-26T10:25:17.914Z,1.60
2019-05-26T10:26:17.877Z,1.50
2019-05-26T10:27:17.847Z,1.80
2019-05-26T10:28:17.815Z,1.50
2019-05-26T10:29:17.784Z,1.60
2019-05-26T10:30:17.756Z,1.40
2019-05-26T10:31:17.720Z,1.60
2019-05-26T10:32:17.691Z,1.50
2019-05-26T10:33:17.661Z,1.70
2019-05-26T10:34:17.636Z,1.70
2019-05-26T10:35:17.600Z,2.00
2019-05-26T10:36:17.562Z,1.90
2019-05-26T10:37:17.531Z,1.90
2019-05-26T10:38:17.498Z,1.70
2019-05-26T10:39:17.467Z,1.70
2019-05-26T10:40:17.436Z,1.90
2019-05-26T10:41:17.407Z,1.90
2019-05-26T10:42:17.383Z,1.60
2019-05-26T10:43:17.346Z,1.50
2019-05-26T10:44:17.311Z,1.80
2019-05-26T10:45:17.279Z,1.70
2019-05-26T10:46:17.248Z,1.70
2019-05-26T10:47:17.219Z,1.60
2019-05-26T10:48:17.185Z,1.40
2019-05-26T10:49:17.153Z,1.60
2019-05-26T10:50:17.127Z,1.60
2019-05-26T10:51:17.088Z,1.40
2019-05-26T10:52:17.057Z,1.50
2019-05-26T10:53:17.026Z,1.50
2019-05-26T10:54:16.997Z,1.60
2019-05-26T10:55:16.965Z,1.50
2019-05-26T10:56:16.939Z,1.50
2019-05-26T10:57:16.899Z,1.70
2019-05-26T10:58:16.867Z,1.70
2019-05-26T10:59:16.833Z,1.70
2019-05-26T11:00:16.806Z,1.50
2019-05-26T11:01:16.778Z,1.50
2019-05-26T11:02:16.745Z,1.60
2019-05-26T11:03:16.705Z,1.50
2019-05-26T11:04:16.679Z,1.70
2019-05-26T11:05:16.646Z,1.40
2019-05-26T11:06:16.616Z,1.50
2019-05-26T11:07:16.585Z,1.50
2019-05-26T11:08:16.552Z,1.60
2019-05-26T11:09:16.518Z,1.60
2019-05-26T11:10:16.484Z,1.40
2019-05-26T11:11:16.455Z,1.70
2019-05-26T11:12:16.423Z,1.60
2019-05-26T11:13:16.392Z,1.60
2019-05-26T11:14:16.364Z,1.70
2019-05-26T11:15:16.332Z,1.50
2019-05-26T11:16:16.298Z,1.60
2019-05-26T11:17:16.266Z,1.60
2019-05-26T11:18:16.233Z,1.40
2019-05-26T11:19:16.205Z,1.40
2019-05-26T11:20:16.171Z,1.60
2019-05-26T11:21:16.140Z,1.50
2019-05-26T11:22:16.104Z,1.60
2019-05-26T11:23:16.076Z,1.70
2019-05-26T11:24:16.044Z,1.70
2019-05-26T11:25:16.020Z,1.60
2019-05-26T11:26:15.985Z,1.70
2019-05-26T11:27:15.979Z,1.40
2019-05-26T11:28:15.918Z,1.70
2019-05-26T11:29:15.887Z,1.50
2019-05-26T11:30:15.853Z,1.40
2019-05-26T11:31:15.825Z,1.60
2019-05-26T11:32:15.793Z,1.70
2019-05-26T11:33:15.763Z,1.60
2019-05-26T11:34:15.736Z,1.50
2019-05-26T11:35:15.708Z,1.50
2019-05-26T11:36:15.942Z,1.50
2019-05-26T11:37:15.637Z,1.70
2019-05-26T11:38:15.609Z,1.60
2019-05-26T11:39:15.578Z,1.50
2019-05-26T11:40:15.547Z,1.50
2019-05-26T11:41:15.511Z,1.60
2019-05-26T11:42:15.587Z,1.60
2019-05-26T11:43:17.016Z,1.50
2019-05-26T11:44:18.017Z,1.60
2019-05-26T11:45:15.389Z,1.40
2019-05-26T11:46:16.751Z,1.50
2019-05-26T11:47:15.329Z,1.50
2019-05-26T11:48:15.295Z,1.60
2019-05-26T11:49:15.263Z,1.50
2019-05-26T11:50:15.229Z,1.80
2019-05-26T11:51:15.207Z,1.70
2019-05-26T11:52:15.172Z,1.70
2019-05-26T11:53:15.138Z,1.40
2019-05-26T11:54:15.106Z,1.60
2019-05-26T11:55:15.076Z,1.40
2019-05-26T11:56:15.047Z,1.50
2019-05-26T11:57:15.016Z,1.50
2019-05-26T11:58:14.988Z,1.50
2019-05-26T11:59:14.959Z,1.70
2019-05-26T12:00:14.926Z,1.60
2019-05-26T12:01:14.898Z,1.50
2019-05-26T12:02:14.861Z,1.60
2019-05-26T12:03:14.831Z,1.50
2019-05-26T12:04:14.799Z,1.50
2019-05-26T12:05:17.548Z,1.70
2019-05-26T12:06:14.740Z,1.70
2019-05-26T12:07:14.708Z,1.40
2019-05-26T12:08:14.673Z,1.50
2019-05-26T12:09:14.648Z,1.70
2019-05-26T12:10:14.711Z,1.70
2019-05-26T12:11:14.587Z,1.50
2019-05-26T12:12:14.554Z,1.40
2019-05-26T12:13:14.520Z,1.70
2019-05-26T12:14:14.487Z,1.50
2019-05-26T12:15:14.457Z,1.70
2019-05-26T12:16:14.425Z,1.80
2019-05-26T12:17:14.401Z,1.50
2019-05-26T12:18:14.368Z,1.40
2019-05-26T12:19:14.337Z,1.70
2019-05-26T12:20:14.304Z,1.50
2019-05-26T12:21:14.273Z,1.60
2019-05-26T12:22:14.238Z,1.60
2019-05-26T12:23:14.213Z,1.90
2019-05-26T12:24:14.180Z,1.60
2019-05-26T12:25:14.152Z,1.50
2019-05-26T12:26:14.114Z,1.70
2019-05-26T12:27:14.084Z,1.40
2019-05-26T12:28:14.053Z,1.30
2019-05-26T12:29:14.023Z,1.60
2019-05-26T12:30:13.999Z,1.50
2019-05-26T12:31:13.965Z,1.70
2019-05-26T12:32:13.928Z,1.70
2019-05-26T12:33:13.981Z,1.40
2019-05-26T12:34:13.868Z,1.50
2019-05-26T12:35:13.832Z,1.50
2019-05-26T12:36:13.804Z,1.70
2019-05-26T12:37:13.776Z,1.50
2019-05-26T12:38:13.746Z,1.60
2019-05-26T12:39:13.709Z,1.50
2019-05-26T12:40:13.677Z,1.50
2019-05-26T12:41:13.649Z,1.70
2019-05-26T12:42:16.904Z,1.70
2019-05-26T12:43:13.591Z,1.60
2019-05-26T12:44:13.555Z,1.60
2019-05-26T12:45:13.523Z,1.50
2019-05-26T12:46:13.492Z,1.70
2019-05-26T12:47:13.466Z,1.70
2019-05-26T12:48:13.430Z,1.70
2019-05-26T12:49:13.401Z,1.80
2019-05-26T12:50:13.373Z,1.70
2019-05-26T12:51:13.341Z,1.80
2019-05-26T12:52:13.305Z,1.70
2019-05-26T12:53:13.272Z,1.90
2019-05-26T12:54:13.240Z,1.90
2019-05-26T12:55:13.215Z,1.70
2019-05-26T12:56:13.185Z,1.80
2019-05-26T12:57:13.148Z,1.60
2019-05-26T12:58:13.115Z,1.80
2019-05-26T12:59:13.086Z,2.00
2019-05-26T13:00:13.055Z,2.10
2019-05-26T13:01:13.042Z,2.10
2019-05-26T13:02:12.994Z,2.00
2019-05-26T13:03:12.965Z,2.30
2019-05-26T13:04:12.933Z,2.20
2019-05-26T13:05:12.899Z,2.00
2019-05-26T13:06:12.864Z,2.20
2019-05-26T13:07:12.835Z,2.00
2019-05-26T13:08:12.805Z,1.90
2019-05-26T13:09:12.775Z,1.90
2019-05-26T13:10:12.745Z,2.20
2019-05-26T13:11:12.711Z,2.20
2019-05-26T13:12:12.679Z,2.00
2019-05-26T13:13:12.651Z,2.20
2019-05-26T13:14:12.621Z,2.00
2019-05-26T13:15:12.590Z,2.00
2019-05-26T13:16:12.558Z,2.00
2019-05-26T13:17:12.532Z,2.10
2019-05-26T13:18:12.489Z,2.00
2019-05-26T13:19:12.471Z,2.20
2019-05-26T13:20:12.432Z,2.00
2019-05-26T13:21:12.399Z,2.10
2019-05-26T13:22:12.372Z,2.10
2019-05-26T13:23:12.342Z,2.20
2019-05-26T13:24:12.307Z,2.00
2019-05-26T13:25:12.282Z,2.10
2019-05-26T13:26:12.238Z,2.20
2019-05-26T13:27:12.214Z,2.10
2019-05-26T13:28:12.183Z,2.10
2019-05-26T13:29:12.150Z,1.90
2019-05-26T13:30:12.120Z,2.10
2019-05-26T13:31:12.083Z,2.20